Time;durP1;ratioP1;P1;durP2;ratioP2;P2;SDS_P1;SDS_P2;PMS_P1;PMS_P2;Temp;Humidity;BMP_temperature;BMP_pressure;BME280_temperature;BME280_humidity;BME280_pressure;Samples;Min_cycle;Max_cycle;Signal;HPM_P1;HPM_P2
2022/10/17 00:01:43;;;;;;;10.43;7.05;;;;;;;;;;5041549;28;20436;-65
2022/10/17 00:04:09;;;;;;;11.13;7.60;;;;;;;;;;5042043;28;20628;-65
2022/10/17 00:06:36;;;;;;;12.10;7.10;;;;;;;;;;5041920;28;20061;-65
2022/10/17 00:09:02;;;;;;;12.50;7.32;;;;;;;;;;5052857;28;20056;-65
2022/10/17 00:11:28;;;;;;;10.75;6.85;;;;;;;;;;5052965;28;20052;-65
2022/10/17 00:13:55;;;;;;;12.23;7.22;;;;;;;;;;5041958;28;20145;-65
2022/10/17 00:16:22;;;;;;;10.98;6.40;;;;;;;;;;5042179;28;20057;-65
2022/10/17 00:18:48;;;;;;;11.23;7.22;;;;;;;;;;5044894;28;20053;-65
2022/10/17 00:21:18;;;;;;;11.00;6.82;;;;;;;;;;5041635;28;20144;-65
2022/10/17 00:23:45;;;;;;;12.82;7.32;;;;;;;;;;5041666;28;20096;-65
2022/10/17 00:26:12;;;;;;;11.27;7.22;;;;;;;;;;5040504;28;20104;-65
2022/10/17 00:28:38;;;;;;;10.07;7.13;;;;;;;;;;5041305;28;20138;-65
2022/10/17 00:31:05;;;;;;;11.55;6.93;;;;;;;;;;5051818;28;20131;-65
2022/10/17 00:33:33;;;;;;;8.52;6.85;;;;;;;;;;5041763;28;20558;-65
2022/10/17 00:36:07;;;;;;;10.10;6.75;;;;;;;;;;5044242;28;20080;-65
2022/10/17 00:38:33;;;;;;;10.98;7.13;;;;;;;;;;5039952;28;20457;-65
2022/10/17 00:40:59;;;;;;;14.25;7.38;;;;;;;;;;5045974;28;20520;-65
2022/10/17 00:43:26;;;;;;;9.52;7.45;;;;;;;;;;5042729;28;20052;-65
2022/10/17 00:45:52;;;;;;;10.32;7.05;;;;;;;;;;5041861;28;20088;-65
2022/10/17 00:48:20;;;;;;;8.30;7.25;;;;;;;;;;5041312;28;20042;-65
2022/10/17 00:50:48;;;;;;;19.38;9.25;;;;;;;;;;5051265;28;20057;-65
2022/10/17 00:53:15;;;;;;;7.72;6.72;;;;;;;;;;5042724;28;20060;-65
2022/10/17 00:55:48;;;;;;;9.93;7.90;;;;;;;;;;5040681;28;20060;-65
2022/10/17 00:58:14;;;;;;;9.98;7.15;;;;;;;;;;5040977;28;20056;-66
2022/10/17 01:00:41;;;;;;;10.55;7.45;;;;;;;;;;5041291;28;20050;-66
2022/10/17 01:03:08;;;;;;;11.85;7.97;;;;;;;;;;5040726;28;20049;-65
2022/10/17 01:05:34;;;;;;;8.02;7.13;;;;;;;;;;5048527;28;20060;-65
2022/10/17 01:08:01;;;;;;;10.27;7.50;;;;;;;;;;5042078;28;20522;-65
2022/10/17 01:10:37;;;;;;;9.50;7.90;;;;;;;;;;5049282;28;20080;-65
2022/10/17 01:13:03;;;;;;;12.30;7.55;;;;;;;;;;5044169;28;20135;-65
2022/10/17 01:15:40;;;;;;;8.95;7.22;;;;;;;;;;5046168;28;20049;-66
2022/10/17 01:18:45;;;;;;;9.43;7.97;;;;;;;;;;5040023;28;20054;-65
2022/10/17 01:21:11;;;;;;;12.15;8.45;;;;;;;;;;5016381;28;20526;-66
2022/10/17 01:23:40;;;;;;;16.67;8.65;;;;;;;;;;5016710;28;20057;-66
2022/10/17 01:26:18;;;;;;;12.35;9.25;;;;;;;;;;5020726;28;20108;-65
2022/10/17 01:29:11;;;;;;;10.63;8.70;;;;;;;;;;5034822;28;20050;-65
2022/10/17 01:31:43;;;;;;;10.52;8.98;;;;;;;;;;5030912;28;20057;-65
2022/10/17 01:34:19;;;;;;;11.80;8.02;;;;;;;;;;5021401;28;20062;-65
2022/10/17 01:36:45;;;;;;;;;;;;;;;;;;5023254;28;20049;-65
2022/10/17 01:39:15;;;;;;;10.80;8.80;;;;;;;;;;5019646;28;46773;-65
2022/10/17 01:41:47;;;;;;;16.13;8.02;;;;;;;;;;5023788;28;20102;-65
2022/10/17 01:44:18;;;;;;;11.55;8.27;;;;;;;;;;5021287;28;20519;-65
2022/10/17 01:46:48;;;;;;;14.48;8.15;;;;;;;;;;5026891;28;20066;-65
2022/10/17 01:49:17;;;;;;;23.13;11.20;;;;;;;;;;5021949;28;20540;-65
2022/10/17 01:51:43;;;;;;;11.77;8.45;;;;;;;;;;5027087;28;20057;-65
2022/10/17 01:54:12;;;;;;;10.60;8.63;;;;;;;;;;5041968;28;20151;-65
2022/10/17 01:56:39;;;;;;;10.93;8.02;;;;;;;;;;5043962;28;20534;-65
2022/10/17 01:59:10;;;;;;;14.05;8.25;;;;;;;;;;5043542;28;20042;-65
2022/10/17 02:01:37;;;;;;;12.38;8.82;;;;;;;;;;5043013;28;20049;-66
2022/10/17 02:04:05;;;;;;;11.85;9.43;;;;;;;;;;5042851;28;20049;-65
2022/10/17 02:06:35;;;;;;;13.07;9.48;;;;;;;;;;5042278;28;20511;-65
2022/10/17 02:09:14;;;;;;;11.32;9.00;;;;;;;;;;5039350;28;20123;-65
2022/10/17 02:11:42;;;;;;;12.68;9.25;;;;;;;;;;5040382;28;20061;-64
2022/10/17 02:14:14;;;;;;;12.25;9.63;;;;;;;;;;5042096;28;20060;-65
2022/10/17 02:16:40;;;;;;;13.15;9.23;;;;;;;;;;5041803;28;20076;-65
2022/10/17 02:19:20;;;;;;;10.70;9.20;;;;;;;;;;5041824;28;20060;-65
2022/10/17 02:21:52;;;;;;;12.95;8.90;;;;;;;;;;5033626;28;20061;-65
2022/10/17 02:24:56;;;;;;;11.27;9.35;;;;;;;;;;5036499;28;20049;-65
2022/10/17 02:27:29;;;;;;;15.10;10.07;;;;;;;;;;5013724;28;20053;-65
2022/10/17 02:29:59;;;;;;;13.57;10.02;;;;;;;;;;5019858;28;20054;-65
2022/10/17 02:32:32;;;;;;;11.63;8.93;;;;;;;;;;5009603;28;20465;-65
2022/10/17 02:35:00;;;;;;;14.43;10.10;;;;;;;;;;5000460;28;20057;-65
2022/10/17 02:37:27;;;;;;;17.20;9.57;;;;;;;;;;5009972;28;20944;-65
2022/10/17 02:39:56;;;;;;;17.05;9.10;;;;;;;;;;5019321;28;20571;-65
2022/10/17 02:42:23;;;;;;;12.65;9.40;;;;;;;;;;5028161;28;20061;-65
2022/10/17 02:44:51;;;;;;;11.93;9.10;;;;;;;;;;5015284;28;20437;-65
2022/10/17 02:47:20;;;;;;;14.27;11.07;;;;;;;;;;5000445;28;20066;-65
2022/10/17 02:49:50;;;;;;;19.65;9.77;;;;;;;;;;5016962;28;20053;-65
2022/10/17 02:52:20;;;;;;;12.43;9.00;;;;;;;;;;5000606;28;20057;-65
2022/10/17 02:54:49;;;;;;;14.15;10.30;;;;;;;;;;5008513;28;20116;-65
2022/10/17 02:57:17;;;;;;;14.02;9.82;;;;;;;;;;5020024;28;20092;-65
2022/10/17 02:59:44;;;;;;;16.30;10.30;;;;;;;;;;5024641;28;20053;-65
2022/10/17 03:02:10;;;;;;;10.93;9.70;;;;;;;;;;5041965;28;20057;-65
2022/10/17 03:04:37;;;;;;;17.80;9.65;;;;;;;;;;5056818;28;20799;-65
2022/10/17 03:07:03;;;;;;;13.10;10.25;;;;;;;;;;5044965;28;20046;-65
2022/10/17 03:09:29;;;;;;;15.75;10.77;;;;;;;;;;5041155;28;20604;-65
2022/10/17 03:11:56;;;;;;;14.02;10.50;;;;;;;;;;5049002;28;20064;-65
2022/10/17 03:14:22;;;;;;;17.75;11.40;;;;;;;;;;5043146;28;20041;-65
2022/10/17 03:16:48;;;;;;;14.70;9.95;;;;;;;;;;5042393;28;20506;-65
2022/10/17 03:19:15;;;;;;;19.52;11.88;;;;;;;;;;5024501;28;20160;-65
2022/10/17 03:21:41;;;;;;;15.98;10.85;;;;;;;;;;5042512;28;20137;-65
2022/10/17 03:24:07;;;;;;;13.30;10.88;;;;;;;;;;5041746;28;20116;-65
2022/10/17 03:26:34;;;;;;;14.88;10.90;;;;;;;;;;5049978;28;20104;-65
2022/10/17 03:29:00;;;;;;;16.10;11.43;;;;;;;;;;5043426;28;20077;-65
2022/10/17 03:31:27;;;;;;;14.77;10.32;;;;;;;;;;5040809;28;20057;-65
2022/10/17 03:33:53;;;;;;;16.25;11.02;;;;;;;;;;5039914;28;20053;-65
2022/10/17 03:36:20;;;;;;;13.32;10.27;;;;;;;;;;5040319;28;20049;-65
2022/10/17 03:38:47;;;;;;;14.23;10.32;;;;;;;;;;5023216;28;20436;-65
2022/10/17 03:41:13;;;;;;;13.75;9.93;;;;;;;;;;5040196;28;20057;-65
2022/10/17 03:43:39;;;;;;;15.05;11.35;;;;;;;;;;5045125;28;20058;-65
2022/10/17 03:46:05;;;;;;;22.55;10.73;;;;;;;;;;5041956;28;20053;-65
2022/10/17 03:48:32;;;;;;;17.20;10.80;;;;;;;;;;5039739;28;20046;-65
2022/10/17 03:51:00;;;;;;;16.35;11.35;;;;;;;;;;5042264;28;20057;-65
2022/10/17 03:53:27;;;;;;;15.65;11.27;;;;;;;;;;5040873;28;20053;-65
2022/10/17 03:55:53;;;;;;;17.10;10.57;;;;;;;;;;5040043;28;20061;-65
2022/10/17 03:58:20;;;;;;;14.98;10.27;;;;;;;;;;5040708;28;20041;-65
2022/10/17 04:00:46;;;;;;;16.40;10.57;;;;;;;;;;5041758;28;20041;-65
2022/10/17 04:03:13;;;;;;;19.75;10.75;;;;;;;;;;5038721;28;20472;-65
2022/10/17 04:05:42;;;;;;;12.90;10.95;;;;;;;;;;5037186;28;20084;-64
2022/10/17 04:08:08;;;;;;;20.08;10.98;;;;;;;;;;5040245;28;20045;-65
2022/10/17 04:10:35;;;;;;;13.00;10.38;;;;;;;;;;5040234;28;20585;-66
2022/10/17 04:13:01;;;;;;;14.82;10.50;;;;;;;;;;5045240;28;20123;-65
2022/10/17 04:15:27;;;;;;;14.13;10.23;;;;;;;;;;5039537;28;20197;-65
2022/10/17 04:17:54;;;;;;;16.23;10.68;;;;;;;;;;5045267;28;20055;-65
2022/10/17 04:20:21;;;;;;;20.08;10.63;;;;;;;;;;5027912;28;20057;-66
2022/10/17 04:22:47;;;;;;;17.30;11.18;;;;;;;;;;5038012;28;20582;-65
2022/10/17 04:25:13;;;;;;;14.43;10.70;;;;;;;;;;5041146;28;20085;-65
2022/10/17 04:27:39;;;;;;;15.13;11.27;;;;;;;;;;5042810;28;20330;-65
2022/10/17 04:30:06;;;;;;;15.13;11.13;;;;;;;;;;5054387;28;20550;-65
2022/10/17 04:32:35;;;;;;;16.63;10.75;;;;;;;;;;5049694;28;20526;-65
2022/10/17 04:35:01;;;;;;;16.33;10.95;;;;;;;;;;5041404;28;20049;-65
2022/10/17 04:37:28;;;;;;;13.40;9.98;;;;;;;;;;5048455;28;20054;-66
2022/10/17 04:39:54;;;;;;;17.05;10.95;;;;;;;;;;5040204;28;20053;-66
2022/10/17 04:42:20;;;;;;;17.95;11.27;;;;;;;;;;5042463;28;20049;-66
2022/10/17 04:44:46;;;;;;;16.30;9.65;;;;;;;;;;5037841;28;20053;-66
2022/10/17 04:47:13;;;;;;;16.55;11.32;;;;;;;;;;5030931;28;20069;-65
2022/10/17 04:49:39;;;;;;;17.10;11.00;;;;;;;;;;5039513;28;20051;-65
2022/10/17 04:52:06;;;;;;;19.40;11.23;;;;;;;;;;5026987;28;20057;-65
2022/10/17 04:54:33;;;;;;;15.43;10.82;;;;;;;;;;5040820;28;20108;-65
2022/10/17 04:56:59;;;;;;;14.90;11.05;;;;;;;;;;5041892;28;20082;-65
2022/10/17 04:59:25;;;;;;;14.25;10.68;;;;;;;;;;5042242;28;20216;-66
2022/10/17 05:01:52;;;;;;;14.32;10.57;;;;;;;;;;5038616;28;20049;-65
2022/10/17 05:04:18;;;;;;;14.05;9.93;;;;;;;;;;5042215;28;20132;-65
2022/10/17 05:06:50;;;;;;;19.67;11.20;;;;;;;;;;5047094;28;20053;-66
2022/10/17 05:09:16;;;;;;;16.00;10.63;;;;;;;;;;5056452;28;20050;-65
2022/10/17 05:11:42;;;;;;;15.00;10.35;;;;;;;;;;5043447;28;20111;-65
2022/10/17 05:14:09;;;;;;;19.20;10.38;;;;;;;;;;5043888;28;20049;-65
2022/10/17 05:16:35;;;;;;;17.05;11.30;;;;;;;;;;5042031;28;20064;-65
2022/10/17 05:19:02;;;;;;;16.75;11.35;;;;;;;;;;5043980;28;20057;-65
2022/10/17 05:21:28;;;;;;;17.85;10.75;;;;;;;;;;5046258;28;20052;-65
2022/10/17 05:23:55;;;;;;;19.00;10.70;;;;;;;;;;5039916;28;20065;-65
2022/10/17 05:26:23;;;;;;;15.43;9.75;;;;;;;;;;5035459;28;20566;-65
2022/10/17 05:28:51;;;;;;;15.75;10.80;;;;;;;;;;5052944;28;20049;-65
2022/10/17 05:31:17;;;;;;;14.90;10.25;;;;;;;;;;5048199;28;20139;-65
2022/10/17 05:33:44;;;;;;;16.15;10.77;;;;;;;;;;5042849;28;20111;-65
2022/10/17 05:36:10;;;;;;;20.33;10.52;;;;;;;;;;5052870;28;20053;-65
2022/10/17 05:38:36;;;;;;;21.88;10.45;;;;;;;;;;5064342;28;20426;-66
2022/10/17 05:41:04;;;;;;;20.10;10.27;;;;;;;;;;5064885;28;20049;-64
2022/10/17 05:43:30;;;;;;;15.10;11.25;;;;;;;;;;5060162;28;20064;-65
2022/10/17 05:45:57;;;;;;;18.85;10.75;;;;;;;;;;5046674;28;20064;-66
2022/10/17 05:48:24;;;;;;;13.57;10.20;;;;;;;;;;5050760;28;20049;-66
2022/10/17 05:50:56;;;;;;;15.70;10.80;;;;;;;;;;5042394;28;20520;-65
2022/10/17 05:53:22;;;;;;;17.25;10.40;;;;;;;;;;5053010;28;20053;-66
2022/10/17 05:55:56;;;;;;;16.10;10.52;;;;;;;;;;5058930;28;20544;-66
2022/10/17 05:58:22;;;;;;;19.45;11.10;;;;;;;;;;5063791;28;20045;-65
2022/10/17 06:01:09;;;;;;;15.50;10.80;;;;;;;;;;5054909;28;20060;-66
2022/10/17 06:03:38;;;;;;;14.43;10.45;;;;;;;;;;5051053;28;20061;-66
2022/10/17 06:06:05;;;;;;;22.42;10.70;;;;;;;;;;5044383;28;20053;-66
2022/10/17 06:08:32;;;;;;;17.33;10.43;;;;;;;;;;5052383;28;20570;-66
2022/10/17 06:10:58;;;;;;;17.45;10.10;;;;;;;;;;5046507;28;20049;-65
2022/10/17 06:13:25;;;;;;;14.18;10.50;;;;;;;;;;5042505;28;20080;-66
2022/10/17 06:15:51;;;;;;;19.05;11.70;;;;;;;;;;5030432;28;20057;-65
2022/10/17 06:18:17;;;;;;;17.33;11.02;;;;;;;;;;5042084;28;20053;-66
2022/10/17 06:20:44;;;;;;;19.42;12.18;;;;;;;;;;5047300;28;20065;-66
2022/10/17 06:23:11;;;;;;;16.55;10.52;;;;;;;;;;5044099;28;20119;-66
2022/10/17 06:25:37;;;;;;;17.02;11.50;;;;;;;;;;5040672;28;20136;-66
2022/10/17 06:28:04;;;;;;;15.60;10.68;;;;;;;;;;5038378;28;20046;-65
2022/10/17 06:30:30;;;;;;;16.30;10.57;;;;;;;;;;5034119;28;20133;-66
2022/10/17 06:32:57;;;;;;;16.83;11.90;;;;;;;;;;5052124;28;20064;-66
2022/10/17 06:35:23;;;;;;;21.15;11.27;;;;;;;;;;5042192;28;20057;-65
2022/10/17 06:37:50;;;;;;;15.63;10.68;;;;;;;;;;5044544;28;20053;-65
2022/10/17 06:40:16;;;;;;;17.45;10.52;;;;;;;;;;5045716;28;20487;-66
2022/10/17 06:42:42;;;;;;;16.33;9.93;;;;;;;;;;5054280;28;20084;-66
2022/10/17 06:45:09;;;;;;;19.85;11.10;;;;;;;;;;5054587;28;20111;-66
2022/10/17 06:47:36;;;;;;;18.30;10.65;;;;;;;;;;5041215;28;20470;-66
2022/10/17 06:50:02;;;;;;;16.50;10.23;;;;;;;;;;5052552;28;20530;-65
2022/10/17 06:52:28;;;;;;;16.13;10.02;;;;;;;;;;5042125;28;20049;-66
2022/10/17 06:54:54;;;;;;;15.88;10.30;;;;;;;;;;5041512;28;20046;-66
2022/10/17 06:57:21;;;;;;;12.90;10.32;;;;;;;;;;5041044;28;20084;-65
2022/10/17 06:59:48;;;;;;;20.38;10.93;;;;;;;;;;5040770;28;20089;-66
2022/10/17 07:02:14;;;;;;;12.40;9.52;;;;;;;;;;5041573;28;20500;-66
2022/10/17 07:04:40;;;;;;;14.88;10.73;;;;;;;;;;5049994;28;20050;-66
2022/10/17 07:07:07;;;;;;;15.27;11.00;;;;;;;;;;5040419;28;20065;-66
2022/10/17 07:09:33;;;;;;;15.50;9.88;;;;;;;;;;5048024;28;20083;-65
2022/10/17 07:11:59;;;;;;;17.30;10.23;;;;;;;;;;5045221;28;20526;-66
2022/10/17 07:14:30;;;;;;;15.60;10.18;;;;;;;;;;5058761;28;20068;-65
2022/10/17 07:16:58;;;;;;;15.90;10.32;;;;;;;;;;5057326;28;20045;-66
2022/10/17 07:19:25;;;;;;;15.93;10.93;;;;;;;;;;5047505;28;20053;-66
2022/10/17 07:21:52;;;;;;;16.55;10.60;;;;;;;;;;5051592;28;20142;-66
2022/10/17 07:24:18;;;;;;;16.75;10.70;;;;;;;;;;5050401;28;20053;-66
2022/10/17 07:26:45;;;;;;;17.02;11.27;;;;;;;;;;5053506;28;20099;-66
2022/10/17 07:29:11;;;;;;;16.15;9.93;;;;;;;;;;5061850;28;20435;-65
2022/10/17 07:31:38;;;;;;;16.90;10.80;;;;;;;;;;5043813;28;20054;-66
2022/10/17 07:34:04;;;;;;;12.98;9.95;;;;;;;;;;5043474;28;20061;-66
2022/10/17 07:36:31;;;;;;;15.32;10.10;;;;;;;;;;5039757;28;20060;-66
2022/10/17 07:38:57;;;;;;;15.55;11.32;;;;;;;;;;5041488;28;20511;-66
2022/10/17 07:41:23;;;;;;;18.02;11.00;;;;;;;;;;5039086;28;20053;-65
2022/10/17 07:43:50;;;;;;;17.92;10.82;;;;;;;;;;5041805;28;20057;-65
2022/10/17 07:46:16;;;;;;;16.85;10.80;;;;;;;;;;5037990;28;20080;-66
2022/10/17 07:48:43;;;;;;;12.75;9.77;;;;;;;;;;5027890;28;20136;-65
2022/10/17 07:51:09;;;;;;;17.63;10.43;;;;;;;;;;5041184;28;20573;-66
2022/10/17 07:53:36;;;;;;;13.98;10.50;;;;;;;;;;5037965;28;20061;-65
2022/10/17 07:56:06;;;;;;;16.38;9.55;;;;;;;;;;5040095;28;20123;-65
2022/10/17 07:58:33;;;;;;;16.20;10.52;;;;;;;;;;5044451;28;20053;-66
2022/10/17 08:01:00;;;;;;;15.93;9.85;;;;;;;;;;5046096;28;20050;-66
2022/10/17 08:03:27;;;;;;;14.65;9.30;;;;;;;;;;5041519;28;20057;-65
2022/10/17 08:05:58;;;;;;;14.50;9.35;;;;;;;;;;5036119;28;20795;-65
2022/10/17 08:08:24;;;;;;;12.13;8.95;;;;;;;;;;5044880;28;20503;-65
2022/10/17 08:10:51;;;;;;;18.55;8.85;;;;;;;;;;5038318;28;20049;-66
2022/10/17 08:13:17;;;;;;;10.85;8.35;;;;;;;;;;5027761;28;20072;-65
2022/10/17 08:15:43;;;;;;;12.30;8.82;;;;;;;;;;5021861;28;20259;-65
2022/10/17 08:18:10;;;;;;;15.55;8.93;;;;;;;;;;5053887;28;20242;-66
2022/10/17 08:20:36;;;;;;;26.30;8.73;;;;;;;;;;5049379;28;20058;-65
2022/10/17 08:23:02;;;;;;;17.85;9.73;;;;;;;;;;5042016;28;20053;-66
2022/10/17 08:25:28;;;;;;;14.05;9.00;;;;;;;;;;5058668;28;20067;-66
2022/10/17 08:27:55;;;;;;;15.75;9.40;;;;;;;;;;5043834;28;20056;-66
2022/10/17 08:30:21;;;;;;;17.50;9.05;;;;;;;;;;5041432;28;20602;-66
2022/10/17 08:32:47;;;;;;;21.25;11.13;;;;;;;;;;5049469;28;20053;-66
2022/10/17 08:35:14;;;;;;;13.90;9.70;;;;;;;;;;5042499;28;20930;-65
2022/10/17 08:37:40;;;;;;;13.45;9.65;;;;;;;;;;5045035;28;20056;-66
2022/10/17 08:40:13;;;;;;;18.45;9.60;;;;;;;;;;5042972;28;20057;-67
2022/10/17 08:42:42;;;;;;;12.90;10.25;;;;;;;;;;5048055;28;20053;-66
2022/10/17 08:45:35;;;;;;;12.88;10.02;;;;;;;;;;5035758;28;20516;-66
2022/10/17 08:48:03;;;;;;;18.20;10.48;;;;;;;;;;5021077;28;20057;-66
2022/10/17 08:50:36;;;;;;;18.35;10.18;;;;;;;;;;5036774;28;20053;-67
2022/10/17 08:53:06;;;;;;;16.67;10.45;;;;;;;;;;5053693;28;20481;-66
2022/10/17 08:55:37;;;;;;;17.02;10.07;;;;;;;;;;5031592;28;20873;-66
2022/10/17 08:58:21;;;;;;;17.73;10.45;;;;;;;;;;5021564;28;20058;-66
2022/10/17 09:00:59;;;;;;;17.40;10.20;;;;;;;;;;5041215;28;20052;-66
2022/10/17 09:03:25;;;;;;;31.92;11.43;;;;;;;;;;5041031;28;20049;-66
2022/10/17 09:05:55;;;;;;;17.95;10.35;;;;;;;;;;5043614;28;20088;-66
2022/10/17 09:08:26;;;;;;;19.00;11.60;;;;;;;;;;5044629;28;20056;-66
2022/10/17 09:10:57;;;;;;;21.13;12.32;;;;;;;;;;5044752;28;21007;-66
2022/10/17 09:13:39;;;;;;;19.70;11.35;;;;;;;;;;5053765;28;20049;-66
2022/10/17 09:16:08;;;;;;;22.60;11.07;;;;;;;;;;5041569;28;20049;-66
2022/10/17 09:18:39;;;;;;;17.45;10.63;;;;;;;;;;5039010;28;20400;-66
2022/10/17 09:21:16;;;;;;;16.88;11.02;;;;;;;;;;5039592;28;20049;-66
2022/10/17 09:23:45;;;;;;;19.77;11.60;;;;;;;;;;5043602;28;20057;-66
2022/10/17 09:26:12;;;;;;;19.02;12.25;;;;;;;;;;5045572;28;20057;-66
2022/10/17 09:28:39;;;;;;;19.48;12.63;;;;;;;;;;5045037;28;20442;-66
2022/10/17 09:31:28;;;;;;;23.55;13.30;;;;;;;;;;5060734;28;20075;-66
2022/10/17 09:33:55;;;;;;;21.63;13.02;;;;;;;;;;5050787;28;20092;-67
2022/10/17 09:36:29;;;;;;;24.95;12.88;;;;;;;;;;5039787;28;20046;-66
2022/10/17 09:38:57;;;;;;;18.73;12.30;;;;;;;;;;5055025;28;20669;-66
2022/10/17 09:41:38;;;;;;;23.27;12.25;;;;;;;;;;5056605;28;20475;-66
2022/10/17 09:44:14;;;;;;;20.35;12.15;;;;;;;;;;5060537;28;20086;-66
2022/10/17 09:46:42;;;;;;;22.77;12.10;;;;;;;;;;5046094;28;20218;-66
2022/10/17 09:49:15;;;;;;;28.10;14.07;;;;;;;;;;5047955;28;20049;-66
2022/10/17 09:51:42;;;;;;;29.30;13.57;;;;;;;;;;5053595;28;20065;-66
2022/10/17 09:54:26;;;;;;;27.80;13.75;;;;;;;;;;5061718;28;20057;-67
2022/10/17 09:57:06;;;;;;;24.77;14.25;;;;;;;;;;5056661;28;20609;-66
2022/10/17 09:59:43;;;;;;;27.23;14.02;;;;;;;;;;5047720;28;20695;-66
2022/10/17 10:02:20;;;;;;;26.05;13.77;;;;;;;;;;5041475;28;20536;-67
2022/10/17 10:04:50;;;;;;;27.17;13.70;;;;;;;;;;5053532;28;20058;-67
2022/10/17 10:07:30;;;;;;;33.05;14.68;;;;;;;;;;5036608;28;20056;-67
2022/10/17 10:09:58;;;;;;;22.23;13.02;;;;;;;;;;5036890;28;20660;-67
2022/10/17 10:12:32;;;;;;;26.15;13.77;;;;;;;;;;5046342;28;20053;-67
2022/10/17 10:14:59;;;;;;;19.55;12.88;;;;;;;;;;5062588;28;20529;-66
2022/10/17 10:17:33;;;;;;;19.10;12.20;;;;;;;;;;5044990;28;20045;-67
2022/10/17 10:20:00;;;;;;;28.10;13.87;;;;;;;;;;5045529;28;20530;-66
2022/10/17 10:22:26;;;;;;;22.95;12.60;;;;;;;;;;5042933;28;20280;-67
2022/10/17 10:25:12;;;;;;;23.77;13.10;;;;;;;;;;5042606;28;20790;-67
2022/10/17 10:27:39;;;;;;;16.50;11.80;;;;;;;;;;5043441;28;20050;-67
2022/10/17 10:30:15;;;;;;;17.77;10.90;;;;;;;;;;5049109;28;20114;-66
2022/10/17 10:32:44;;;;;;;15.93;11.25;;;;;;;;;;5055455;28;20089;-67
2022/10/17 10:35:21;;;;;;;16.42;10.90;;;;;;;;;;5053999;28;20045;-66
2022/10/17 10:37:49;;;;;;;19.75;11.65;;;;;;;;;;5056355;28;20307;-67
2022/10/17 10:40:21;;;;;;;17.85;11.35;;;;;;;;;;5049053;28;20049;-67
2022/10/17 10:42:51;;;;;;;18.85;11.65;;;;;;;;;;5044734;28;20053;-68
2022/10/17 10:45:25;;;;;;;19.83;11.63;;;;;;;;;;5043190;28;20042;-68
2022/10/17 10:48:14;;;;;;;13.27;9.68;;;;;;;;;;5045806;28;20494;-68
2022/10/17 10:50:43;;;;;;;14.40;10.32;;;;;;;;;;5044481;28;20511;-68
2022/10/17 10:53:19;;;;;;;16.33;10.48;;;;;;;;;;5048567;28;20054;-68
2022/10/17 10:55:48;;;;;;;18.25;10.73;;;;;;;;;;5043355;28;20054;-66
2022/10/17 10:58:38;;;;;;;14.35;10.13;;;;;;;;;;5044790;28;20046;-66
2022/10/17 11:01:15;;;;;;;14.15;9.93;;;;;;;;;;5045892;28;20654;-66
2022/10/17 11:03:51;;;;;;;13.40;9.05;;;;;;;;;;5031799;28;20062;-66
2022/10/17 11:06:28;;;;;;;18.80;9.40;;;;;;;;;;5040771;28;20050;-67
2022/10/17 11:09:12;;;;;;;10.18;7.68;;;;;;;;;;5025654;28;20054;-66
2022/10/17 11:11:48;;;;;;;11.48;8.30;;;;;;;;;;5030151;28;20057;-67
2022/10/17 11:14:22;;;;;;;11.10;8.52;;;;;;;;;;5050702;28;20531;-66
2022/10/17 11:16:53;;;;;;;10.82;8.27;;;;;;;;;;5041049;28;20540;-67
2022/10/17 11:19:24;;;;;;;17.08;8.73;;;;;;;;;;5045201;28;20053;-66
2022/10/17 11:21:54;;;;;;;12.60;8.35;;;;;;;;;;5052821;28;20457;-66
2022/10/17 11:24:26;;;;;;;11.27;8.43;;;;;;;;;;5041547;28;20519;-66
2022/10/17 11:26:55;;;;;;;11.50;9.30;;;;;;;;;;5042541;28;20550;-66
2022/10/17 11:29:27;;;;;;;10.10;8.70;;;;;;;;;;5041587;28;20049;-66
2022/10/17 11:31:55;;;;;;;10.93;9.18;;;;;;;;;;5041711;28;20594;-66
2022/10/17 11:34:26;;;;;;;14.85;10.38;;;;;;;;;;5044845;28;20071;-66
2022/10/17 11:37:01;;;;;;;14.02;9.48;;;;;;;;;;5045821;28;20136;-66
2022/10/17 11:39:30;;;;;;;11.88;9.13;;;;;;;;;;5056374;28;20063;-65
2022/10/17 11:42:05;;;;;;;10.95;9.80;;;;;;;;;;5039434;28;20108;-66
2022/10/17 11:44:31;;;;;;;11.55;8.43;;;;;;;;;;5023841;28;20050;-67
2022/10/17 11:47:02;;;;;;;12.27;9.40;;;;;;;;;;5040446;28;20570;-65
2022/10/17 11:49:33;;;;;;;12.43;9.43;;;;;;;;;;5038562;28;20053;-66
2022/10/17 11:52:17;;;;;;;12.80;9.48;;;;;;;;;;5044107;28;20052;-66
2022/10/17 11:55:10;;;;;;;11.68;9.05;;;;;;;;;;5040216;28;20135;-67
2022/10/17 11:57:53;;;;;;;12.18;9.45;;;;;;;;;;5047224;28;20053;-66
2022/10/17 12:00:39;;;;;;;11.88;8.80;;;;;;;;;;5050114;28;20076;-66
2022/10/17 12:03:19;;;;;;;14.45;9.10;;;;;;;;;;5053904;28;20053;-66
2022/10/17 12:05:58;;;;;;;12.30;9.82;;;;;;;;;;5058222;28;20127;-66
2022/10/17 12:08:51;;;;;;;12.50;9.30;;;;;;;;;;5041308;28;20053;-66
2022/10/17 12:11:33;;;;;;;12.65;9.98;;;;;;;;;;5036902;28;20053;-66
2022/10/17 12:14:00;;;;;;;12.93;10.43;;;;;;;;;;5043064;28;20054;-66
2022/10/17 12:16:33;;;;;;;13.13;10.27;;;;;;;;;;5055822;28;20060;-66
2022/10/17 12:19:00;;;;;;;12.38;10.15;;;;;;;;;;5051277;28;20567;-66
2022/10/17 12:21:27;;;;;;;13.57;10.30;;;;;;;;;;5054342;28;20080;-66
2022/10/17 12:23:57;;;;;;;11.35;9.60;;;;;;;;;;5038406;28;20053;-66
2022/10/17 12:26:27;;;;;;;15.45;10.05;;;;;;;;;;5045622;28;20140;-67
2022/10/17 12:28:54;;;;;;;11.32;10.00;;;;;;;;;;5050073;28;20061;-66
2022/10/17 12:31:25;;;;;;;11.57;9.70;;;;;;;;;;5051510;28;20100;-66
2022/10/17 12:34:02;;;;;;;11.93;9.80;;;;;;;;;;5021585;28;20057;-65
2022/10/17 12:36:29;;;;;;;13.57;10.55;;;;;;;;;;5039172;28;20045;-66
2022/10/17 12:39:01;;;;;;;11.98;8.90;;;;;;;;;;5040973;28;20496;-66
2022/10/17 12:41:37;;;;;;;12.35;7.63;;;;;;;;;;5038593;28;20539;-66
2022/10/17 12:44:13;;;;;;;7.15;6.10;;;;;;;;;;5041867;28;20147;-66
2022/10/17 12:46:43;;;;;;;6.70;4.57;;;;;;;;;;5032154;28;20057;-66
2022/10/17 12:49:29;;;;;;;4.78;4.28;;;;;;;;;;5027692;28;20080;-66
2022/10/17 12:52:14;;;;;;;5.15;3.70;;;;;;;;;;5050108;28;20054;-66
2022/10/17 12:54:43;;;;;;;4.70;4.03;;;;;;;;;;5050779;28;20099;-67
2022/10/17 12:57:34;;;;;;;11.02;3.90;;;;;;;;;;5040963;28;20045;-66
2022/10/17 13:00:00;;;;;;;;;;;;;;;;;;5061827;28;20053;-66
2022/10/17 13:02:28;;;;;;;6.57;3.95;;;;;;;;;;5043506;28;45928;-67
2022/10/17 13:05:01;;;;;;;5.28;4.18;;;;;;;;;;5040500;28;20080;-66
2022/10/17 13:07:28;;;;;;;7.43;4.20;;;;;;;;;;5036957;28;20084;-66
2022/10/17 13:09:55;;;;;;;5.40;3.90;;;;;;;;;;5041010;28;20080;-69
2022/10/17 13:12:24;;;;;;;6.80;4.40;;;;;;;;;;5042507;28;20049;-67
2022/10/17 13:14:51;;;;;;;6.00;4.30;;;;;;;;;;5044521;28;20050;-67
2022/10/17 13:17:29;;;;;;;5.65;4.72;;;;;;;;;;5039827;28;20085;-67
2022/10/17 13:19:56;;;;;;;7.63;4.15;;;;;;;;;;5046631;28;20048;-66
2022/10/17 13:22:24;;;;;;;9.23;4.15;;;;;;;;;;5061238;28;20049;-67
2022/10/17 13:24:51;;;;;;;8.35;4.50;;;;;;;;;;5060299;28;20518;-67
2022/10/17 13:27:28;;;;;;;6.18;5.13;;;;;;;;;;5047880;28;20419;-66
2022/10/17 13:29:56;;;;;;;8.27;6.43;;;;;;;;;;5042363;28;20527;-66
2022/10/17 13:32:23;;;;;;;8.75;7.90;;;;;;;;;;5044869;28;20084;-66
2022/10/17 13:35:06;;;;;;;10.30;6.45;;;;;;;;;;5043505;28;20065;-68
2022/10/17 13:37:33;;;;;;;8.52;6.22;;;;;;;;;;5046321;28;20052;-67
2022/10/17 13:39:59;;;;;;;8.77;5.82;;;;;;;;;;5050992;28;20052;-65
2022/10/17 13:42:43;;;;;;;8.98;7.30;;;;;;;;;;5062332;28;20572;-66
2022/10/17 13:45:17;;;;;;;11.40;7.57;;;;;;;;;;5046219;28;20049;-66
2022/10/17 13:47:44;;;;;;;8.88;6.43;;;;;;;;;;5054056;28;20083;-67
2022/10/17 13:50:26;;;;;;;8.80;6.75;;;;;;;;;;5060620;28;20052;-66
2022/10/17 13:53:15;;;;;;;8.07;5.90;;;;;;;;;;5059252;28;20055;-67
2022/10/17 13:55:51;;;;;;;8.52;6.63;;;;;;;;;;5048927;28;20057;-66
2022/10/17 13:58:42;;;;;;;9.15;7.13;;;;;;;;;;5047022;28;20606;-66
2022/10/17 14:01:09;;;;;;;9.48;6.32;;;;;;;;;;5045166;28;20522;-66
2022/10/17 14:03:38;;;;;;;12.20;7.45;;;;;;;;;;5044279;28;20049;-66
2022/10/17 14:06:17;;;;;;;12.07;7.20;;;;;;;;;;5043318;28;20526;-66
2022/10/17 14:08:48;;;;;;;10.23;7.35;;;;;;;;;;5046334;28;20048;-66
2022/10/17 14:11:20;;;;;;;8.93;8.02;;;;;;;;;;5050456;28;20045;-66
2022/10/17 14:13:48;;;;;;;7.88;7.10;;;;;;;;;;5046136;28;20057;-66
2022/10/17 14:16:15;;;;;;;9.68;8.38;;;;;;;;;;5045044;28;20080;-66
2022/10/17 14:18:46;;;;;;;9.27;7.65;;;;;;;;;;5028411;28;20141;-66
2022/10/17 14:21:17;;;;;;;8.50;7.50;;;;;;;;;;5040751;28;20048;-67
2022/10/17 14:24:22;;;;;;;10.82;8.45;;;;;;;;;;5031041;28;20053;-66
2022/10/17 14:26:53;;;;;;;10.82;8.10;;;;;;;;;;5046638;28;20088;-67
2022/10/17 14:29:21;;;;;;;10.18;8.38;;;;;;;;;;5046449;28;20049;-66
2022/10/17 14:31:49;;;;;;;10.50;8.68;;;;;;;;;;5033467;28;20053;-66
2022/10/17 14:34:19;;;;;;;11.02;9.15;;;;;;;;;;5050488;28;20148;-66
2022/10/17 14:36:47;;;;;;;10.40;8.65;;;;;;;;;;5034527;28;20045;-66
2022/10/17 14:39:19;;;;;;;19.15;9.52;;;;;;;;;;5044493;28;20535;-66
2022/10/17 14:41:46;;;;;;;10.98;8.45;;;;;;;;;;5028473;28;20046;-65
2022/10/17 14:44:18;;;;;;;14.00;9.10;;;;;;;;;;5046972;28;20054;-66